This is the latest recevied weather packets stored in our database for station/object OE-11149. If no packets are shown the sender has not sent any weather packets the latest 10 day(s).
| Time | Temp. | Humidity | Pressure | Rain* | Wind** | Luminosity | Snow |
|---|---|---|---|---|---|---|---|
| 1788001893 | 12.78° C | 62% | 853.7 hPa | 0 mm | - | 861 W/m² | - |
| 1788001519 | 12.78° C | 64% | 853.8 hPa | 0 mm | - | 629 W/m² | - |
| 1788000920 | 12.78° C | 65% | 853.8 hPa | 0 mm | - | 722 W/m² | - |
| 1788000093 | 12.78° C | 64% | 853.7 hPa | 0 mm | - | 894 W/m² | - |
| 1787999720 | 12.78° C | 66% | 853.7 hPa | 0 mm | - | 768 W/m² | - |
| 1787999120 | 12.22° C | 67% | 853.8 hPa | 0 mm | - | 570 W/m² | - |
| 1787998293 | 12.22° C | 67% | 853.8 hPa | 0 mm | - | 424 W/m² | - |
| 1787997919 | 11.67° C | 69% | 854 hPa | 0 mm | - | 430 W/m² | - |
| 1787997320 | 11.67° C | 69% | 854 hPa | 0 mm | - | 543 W/m² | - |
| 1787996493 | 11.67° C | 68% | 854 hPa | 0 mm | - | 563 W/m² | - |
| 1787996120 | 11.67° C | 67% | 854 hPa | 0 mm | - | 702 W/m² | - |
| 1787995520 | 11.11° C | 71% | 854.3 hPa | 0 mm | - | 430 W/m² | - |
| 1787994693 | 11.11° C | 68% | 854.3 hPa | 0 mm | - | 331 W/m² | - |
| 1787994320 | 11.11° C | 71% | 854.3 hPa | 0 mm | - | 344 W/m² | - |
| 1787993720 | 10.56° C | 71% | 854.2 hPa | 0 mm | - | 311 W/m² | - |
| 1787992892 | 10.56° C | 73% | 854.3 hPa | 0 mm | - | 364 W/m² | - |
| 1787992519 | 10° C | 80% | 854.3 hPa | 0 mm | - | 430 W/m² | - |
| 1787991920 | 10° C | 82% | 854.2 hPa | 0 mm | - | 291 W/m² | - |
| 1787991093 | 10.56° C | 72% | 854.2 hPa | 0 mm | - | 285 W/m² | - |
| 1787990719 | 10° C | 75% | 854.2 hPa | 0 mm | - | 291 W/m² | - |
| 1787990120 | 10.56° C | 74% | 854.2 hPa | 0 mm | - | 291 W/m² | - |
| 1787989292 | 10.56° C | 73% | 854.1 hPa | 0 mm | - | 272 W/m² | - |
| 1787988920 | 10.56° C | 73% | 853.9 hPa | 0 mm | - | 199 W/m² | - |
| 1787988319 | 10° C | 74% | 853.9 hPa | 0 mm | - | 232 W/m² | - |
| 1787987493 | 10° C | 76% | 853.9 hPa | 0 mm | - | 225 W/m² | - |
* Rain latest hour (hover to see other rain measurements)
** Current wind speed in m/s (hover to see current wind gust speed)